Canonbie, United Kingdom
Current Conditions -  °F | °C
As of 7:50 AM on Thursday 27 Nov 2014 (Local Time) from EGOM Reporting Station
Haze Haze  
Wind Chill:   Ceiling: 200
Heat Index:   Visibility: 1mi
Dew Point:   Wind: 3mph
Humidity: 100%   Direction: 30°NNE
Pressure: 29.59"   Gusts: NA
Location:  55.08°N, 2.94°W
Report Text: EGOM 270750Z AUTO 03003KT 1600 BR OVC002/// 05/05 Q1002 REDZ
Loading
Personal Weather Stations






























Interactive Weather Map New forecast layout! Learn more

10-Day Weather Forecast

Advertisements
Track Severe Weather on mobile